Time;durP1;ratioP1;P1;durP2;ratioP2;P2;SDS_P1;SDS_P2;PMS_P1;PMS_P2;Temp;Humidity;BMP_temperature;BMP_pressure;BME280_temperature;BME280_humidity;BME280_pressure;Samples;Min_cycle;Max_cycle;Signal;HPM_P1;HPM_P2
2022/01/05 00:00:09;;;;;;;4.07;1.17;;;25.90;99.90;;;;;;4993173;28;20186;-68
2022/01/05 00:02:39;;;;;;;3.90;1.10;;;25.80;99.90;;;;;;4992732;28;20187;-68
2022/01/05 00:05:08;;;;;;;2.93;0.90;;;26.10;99.90;;;;;;4992615;28;20297;-68
2022/01/05 00:07:36;;;;;;;5.37;1.03;;;26.30;99.90;;;;;;4992719;28;20193;-68
2022/01/05 00:10:05;;;;;;;4.53;1.37;;;26.30;99.90;;;;;;4992929;28;20587;-68
2022/01/05 00:12:32;;;;;;;6.20;1.20;;;26.00;99.90;;;;;;4993126;28;20171;-68
2022/01/05 00:15:00;;;;;;;6.57;1.60;;;25.80;99.90;;;;;;4992818;28;20237;-68
2022/01/05 00:17:28;;;;;;;4.20;1.10;;;25.60;99.90;;;;;;4992967;28;20580;-70
2022/01/05 00:19:56;;;;;;;8.33;1.40;;;25.50;99.90;;;;;;4992849;28;20183;-70
2022/01/05 00:22:24;;;;;;;7.13;1.20;;;25.50;99.90;;;;;;4992433;28;20187;-68
2022/01/05 00:24:52;;;;;;;3.83;1.17;;;25.50;99.90;;;;;;4992937;28;20174;-68
2022/01/05 00:27:19;;;;;;;3.47;1.10;;;25.70;99.90;;;;;;4992785;28;20193;-68
2022/01/05 00:29:48;;;;;;;5.43;1.20;;;26.00;99.90;;;;;;4992409;28;20293;-67
2022/01/05 00:32:15;;;;;;;7.77;1.87;;;26.30;99.90;;;;;;4992166;28;20193;-67
2022/01/05 00:34:43;;;;;;;5.33;1.07;;;26.50;99.90;;;;;;4991952;28;20249;-68
2022/01/05 00:37:11;;;;;;;4.97;1.10;;;26.80;99.90;;;;;;4991780;28;20226;-68
2022/01/05 00:39:39;;;;;;;5.57;1.20;;;27.10;99.90;;;;;;4992208;28;20175;-67
2022/01/05 00:42:07;;;;;;;6.47;1.13;;;26.90;99.90;;;;;;4989877;28;20188;-67
2022/01/05 00:44:35;;;;;;;5.90;1.27;;;26.70;99.90;;;;;;4992129;28;20182;-67
2022/01/05 00:47:03;;;;;;;5.27;1.10;;;26.80;99.90;;;;;;4989423;28;20179;-68
2022/01/05 00:49:31;;;;;;;5.53;0.90;;;26.50;99.90;;;;;;4991848;28;20253;-68
2022/01/05 00:51:59;;;;;;;5.97;1.37;;;26.80;99.90;;;;;;4974858;28;20633;-67
2022/01/05 00:54:27;;;;;;;5.57;1.20;;;27.20;99.90;;;;;;4992323;28;20186;-68
2022/01/05 00:56:55;;;;;;;4.33;1.20;;;27.50;99.90;;;;;;4992702;28;20185;-68
2022/01/05 00:59:23;;;;;;;6.17;1.53;;;27.40;99.90;;;;;;4992485;28;20182;-67
2022/01/05 01:01:51;;;;;;;6.13;1.30;;;27.30;99.90;;;;;;4992488;28;20245;-67
2022/01/05 01:04:18;;;;;;;10.93;2.10;;;27.30;99.90;;;;;;4992236;28;20225;-66
2022/01/05 01:06:46;;;;;;;8.80;1.50;;;27.60;99.90;;;;;;4992596;28;20179;-69
2022/01/05 01:09:14;;;;;;;3.97;1.10;;;27.80;99.90;;;;;;4992371;28;20186;-68
2022/01/05 01:11:41;;;;;;;9.13;1.87;;;27.00;99.90;;;;;;4991941;28;20244;-68
2022/01/05 01:14:10;;;;;;;8.77;1.70;;;26.60;99.90;;;;;;4992331;28;20178;-68
2022/01/05 01:16:37;;;;;;;6.57;1.40;;;26.60;99.90;;;;;;4991777;28;20676;-67
2022/01/05 01:19:05;;;;;;;9.07;1.83;;;26.20;99.90;;;;;;4992252;28;20182;-68
2022/01/05 01:21:33;;;;;;;7.17;1.93;;;25.40;99.90;;;;;;4992402;28;20208;-68
2022/01/05 01:24:01;;;;;;;10.00;1.90;;;24.40;99.90;;;;;;4992285;28;20178;-68
2022/01/05 01:26:30;;;;;;;8.80;1.60;;;23.70;99.90;;;;;;4991958;28;20193;-67
2022/01/05 01:29:00;;;;;;;7.37;2.03;;;23.30;99.90;;;;;;4991974;28;20183;-68
2022/01/05 01:31:28;;;;;;;8.23;1.60;;;23.10;99.90;;;;;;4994643;28;20265;-68
2022/01/05 01:33:56;;;;;;;7.07;1.73;;;23.30;99.90;;;;;;4996032;28;20191;-68
2022/01/05 01:36:24;;;;;;;4.97;1.10;;;23.20;99.90;;;;;;4995198;28;20296;-68
2022/01/05 01:38:52;;;;;;;5.03;0.90;;;23.20;99.90;;;;;;4995807;28;20189;-69
2022/01/05 01:41:20;;;;;;;3.47;1.10;;;23.20;99.90;;;;;;4995853;28;20174;-68
2022/01/05 01:43:47;;;;;;;5.10;0.87;;;23.30;99.90;;;;;;4995807;28;20193;-68
2022/01/05 01:46:15;;;;;;;9.53;1.30;;;23.40;99.90;;;;;;4995441;28;20190;-69
2022/01/05 01:48:43;;;;;;;4.43;0.83;;;23.50;99.90;;;;;;4995191;28;20193;-68
2022/01/05 01:51:10;;;;;;;3.77;0.80;;;23.70;99.90;;;;;;4995614;28;20217;-68
2022/01/05 01:53:38;;;;;;;5.73;1.33;;;23.80;99.90;;;;;;4995556;28;20545;-68
2022/01/05 01:56:08;;;;;;;7.13;1.60;;;23.90;99.90;;;;;;4995523;28;20512;-68
2022/01/05 01:58:37;;;;;;;6.13;2.07;;;24.30;99.90;;;;;;4994628;28;20213;-68
2022/01/05 02:01:05;;;;;;;4.20;1.53;;;24.70;99.90;;;;;;4995171;28;20265;-68
2022/01/05 02:03:33;;;;;;;6.47;1.40;;;24.80;99.90;;;;;;4995512;28;20175;-68
2022/01/05 02:06:01;;;;;;;3.47;1.43;;;25.00;99.90;;;;;;4995029;28;20182;-68
2022/01/05 02:08:29;;;;;;;7.57;1.30;;;25.00;99.90;;;;;;4995111;28;20241;-69
2022/01/05 02:10:57;;;;;;;7.20;1.43;;;25.00;99.90;;;;;;4995217;28;20305;-68
2022/01/05 02:13:25;;;;;;;8.57;1.97;;;25.10;99.90;;;;;;4995074;28;20195;-68
2022/01/05 02:15:53;;;;;;;7.07;1.70;;;25.10;99.90;;;;;;4995163;28;20707;-68
2022/01/05 02:20:50;;;;;;;9.57;2.57;;;25.20;99.90;;;;;;4995241;28;20175;-68
2022/01/05 02:23:17;;;;;;;10.13;2.07;;;25.10;99.90;;;;;;4977781;28;20179;-68
2022/01/05 02:25:45;;;;;;;12.10;1.77;;;25.30;99.90;;;;;;4995142;28;20175;-68
2022/01/05 02:28:13;;;;;;;7.83;2.20;;;25.30;99.90;;;;;;4994757;28;20236;-70
2022/01/05 02:30:43;;;;;;;10.53;2.20;;;25.00;99.90;;;;;;4994992;28;20210;-68
2022/01/05 02:33:11;;;;;;;10.00;2.00;;;24.40;99.90;;;;;;4994896;28;20183;-69
2022/01/05 02:35:39;;;;;;;9.70;1.50;;;23.80;99.90;;;;;;4994320;28;20234;-68
2022/01/05 02:38:07;;;;;;;5.47;1.40;;;23.30;99.90;;;;;;4993616;28;20232;-69
2022/01/05 02:40:34;;;;;;;8.73;2.40;;;23.00;99.90;;;;;;4976847;28;20244;-69
2022/01/05 02:43:02;;;;;;;7.50;1.77;;;23.00;99.90;;;;;;4976125;28;20580;-70
2022/01/05 02:45:30;;;;;;;9.90;1.93;;;22.90;99.90;;;;;;4994695;28;20644;-68
2022/01/05 02:47:58;;;;;;;11.67;1.87;;;22.90;99.90;;;;;;4994608;28;20668;-70
2022/01/05 02:50:25;;;;;;;11.73;2.03;;;23.00;99.90;;;;;;4994209;28;20231;-69
2022/01/05 02:52:53;;;;;;;12.03;2.03;;;23.00;99.90;;;;;;4994466;28;20236;-68
2022/01/05 02:55:21;;;;;;;14.33;2.83;;;23.10;99.90;;;;;;4994592;28;20192;-69
2022/01/05 02:57:48;;;;;;;13.43;2.50;;;23.10;99.90;;;;;;4994502;28;20182;-68
2022/01/05 03:00:17;;;;;;;12.47;2.63;;;23.30;99.90;;;;;;4976533;28;20201;-68
2022/01/05 03:02:45;;;;;;;14.90;2.47;;;23.40;99.90;;;;;;4994467;28;20681;-68
2022/01/05 03:05:13;;;;;;;8.67;1.90;;;23.60;99.90;;;;;;4994385;28;20273;-68
2022/01/05 03:07:41;;;;;;;10.23;1.90;;;23.70;99.90;;;;;;4994276;28;20247;-69
2022/01/05 03:10:10;;;;;;;8.93;1.93;;;23.70;99.90;;;;;;4993818;28;20217;-68
2022/01/05 03:12:40;;;;;;;6.93;1.80;;;23.80;99.90;;;;;;4993308;28;20659;-68
2022/01/05 03:15:09;;;;;;;8.67;2.20;;;23.60;99.90;;;;;;4993913;28;20257;-68
2022/01/05 03:17:37;;;;;;;11.80;2.50;;;23.70;99.90;;;;;;4993860;28;20641;-68
2022/01/05 03:20:07;;;;;;;10.50;2.50;;;23.80;99.90;;;;;;4993971;28;20189;-68
2022/01/05 03:22:36;;;;;;;10.63;2.07;;;23.90;99.90;;;;;;4976571;28;20197;-68
2022/01/05 03:25:05;;;;;;;13.00;2.70;;;23.90;99.90;;;;;;4994108;28;20193;-68
2022/01/05 03:27:33;;;;;;;10.03;2.10;;;23.80;99.90;;;;;;4994002;28;20182;-68
2022/01/05 03:30:01;;;;;;;11.80;2.37;;;23.80;99.90;;;;;;4993691;28;20588;-69
2022/01/05 03:32:38;;;;;;;14.17;3.07;;;23.90;99.90;;;;;;4993470;28;20265;-69
2022/01/05 03:35:06;;;;;;;14.30;2.00;;;23.90;99.90;;;;;;4993282;28;20190;-69
2022/01/05 03:37:33;;;;;;;10.23;1.87;;;23.90;99.90;;;;;;4992767;28;20197;-69
2022/01/05 03:40:01;;;;;;;7.67;1.60;;;23.80;99.90;;;;;;4992657;28;20182;-69
2022/01/05 03:42:29;;;;;;;6.30;1.60;;;23.60;99.90;;;;;;4993634;28;20257;-69
2022/01/05 03:44:56;;;;;;;5.07;0.93;;;23.50;99.90;;;;;;4993527;28;20178;-69
2022/01/05 03:47:24;;;;;;;4.27;1.43;;;23.40;99.90;;;;;;4993603;28;20177;-69
2022/01/05 03:49:52;;;;;;;4.47;1.03;;;23.40;99.90;;;;;;4993457;28;20678;-69
2022/01/05 03:52:20;;;;;;;3.67;1.00;;;23.50;99.90;;;;;;4993496;28;20254;-68
2022/01/05 03:54:47;;;;;;;6.97;1.10;;;23.60;99.90;;;;;;4993199;28;20597;-69
2022/01/05 03:57:15;;;;;;;3.00;1.20;;;23.50;99.90;;;;;;4992936;28;20196;-69
2022/01/05 03:59:43;;;;;;;5.57;1.03;;;23.50;99.90;;;;;;4992764;28;20570;-68
2022/01/05 04:02:10;;;;;;;3.93;0.77;;;23.60;99.90;;;;;;4992721;28;20331;-69
2022/01/05 04:04:38;;;;;;;3.17;0.90;;;23.60;99.90;;;;;;4992759;28;20201;-68
2022/01/05 04:07:06;;;;;;;2.63;1.13;;;23.60;99.90;;;;;;4992908;28;20244;-69
2022/01/05 04:09:34;;;;;;;3.10;1.10;;;23.60;99.90;;;;;;4975733;28;20288;-69
2022/01/05 04:12:01;;;;;;;4.40;1.00;;;23.50;99.90;;;;;;4993178;28;20222;-69
2022/01/05 04:14:29;;;;;;;5.90;1.20;;;23.10;99.90;;;;;;4993160;28;20256;-68
2022/01/05 04:16:57;;;;;;;4.93;1.17;;;22.70;99.90;;;;;;4992866;28;20261;-69
2022/01/05 04:19:24;;;;;;;6.13;1.40;;;22.40;99.90;;;;;;4993023;28;20628;-68
2022/01/05 04:21:52;;;;;;;5.30;1.57;;;22.20;99.90;;;;;;4992804;28;20189;-69
2022/01/05 04:24:20;;;;;;;2.53;1.00;;;22.30;99.90;;;;;;4992857;28;20552;-70
2022/01/05 04:26:48;;;;;;;4.43;1.17;;;22.30;99.90;;;;;;4975483;28;20189;-69
2022/01/05 04:29:16;;;;;;;8.90;1.77;;;22.20;99.90;;;;;;4992869;28;20186;-69
2022/01/05 04:31:45;;;;;;;6.80;1.40;;;22.10;99.90;;;;;;4992621;28;20183;-69
2022/01/05 04:34:13;;;;;;;6.03;1.47;;;22.10;99.90;;;;;;4992588;28;20557;-69
2022/01/05 04:36:41;;;;;;;5.10;1.30;;;22.20;99.90;;;;;;4992456;28;20241;-69
2022/01/05 04:39:09;;;;;;;7.00;1.60;;;22.20;99.90;;;;;;4991813;28;20234;-69
2022/01/05 04:41:36;;;;;;;6.67;1.90;;;22.20;99.90;;;;;;4992866;28;20174;-67
2022/01/05 04:44:04;;;;;;;5.03;1.00;;;22.20;99.90;;;;;;4992258;28;20179;-67
2022/01/05 04:46:32;;;;;;;3.17;1.17;;;22.20;99.90;;;;;;4992390;28;20224;-69
2022/01/05 04:49:00;;;;;;;6.37;1.30;;;22.10;99.90;;;;;;4992417;28;20206;-68
2022/01/05 04:51:27;;;;;;;6.53;1.13;;;22.10;99.90;;;;;;4992319;28;20287;-68
2022/01/05 04:53:55;;;;;;;5.93;1.47;;;22.10;99.90;;;;;;4992689;28;20538;-69
2022/01/05 04:56:23;;;;;;;3.63;0.90;;;22.10;99.90;;;;;;4992525;28;20188;-69
2022/01/05 04:58:50;;;;;;;7.57;1.33;;;22.10;99.90;;;;;;4992148;28;20174;-68
2022/01/05 05:01:18;;;;;;;6.53;1.17;;;22.20;99.90;;;;;;4992647;28;20269;-68
2022/01/05 05:03:46;;;;;;;2.57;0.80;;;22.20;99.90;;;;;;4992317;28;20182;-68
2022/01/05 05:06:13;;;;;;;8.90;1.30;;;22.20;99.90;;;;;;4977055;28;20552;-68
2022/01/05 05:08:41;;;;;;;6.07;1.20;;;22.10;99.90;;;;;;4996327;28;20566;-67
2022/01/05 05:11:09;;;;;;;5.27;1.40;;;22.10;99.90;;;;;;4996452;28;20236;-68
2022/01/05 05:13:37;;;;;;;1.87;0.97;;;22.10;99.90;;;;;;4996509;28;20167;-69
2022/01/05 05:16:05;;;;;;;3.47;1.00;;;22.20;99.90;;;;;;4978769;28;20643;-68
2022/01/05 05:18:32;;;;;;;5.63;1.33;;;22.10;99.90;;;;;;4978553;28;20182;-68
2022/01/05 05:21:01;;;;;;;3.87;1.30;;;22.20;99.90;;;;;;4996325;28;20988;-68
2022/01/05 05:23:29;;;;;;;8.37;1.83;;;22.30;99.90;;;;;;4979024;28;20206;-68
2022/01/05 05:25:57;;;;;;;9.07;1.23;;;22.30;99.90;;;;;;4996092;28;20186;-68
2022/01/05 05:28:25;;;;;;;4.40;1.30;;;22.30;99.90;;;;;;4995873;28;20550;-68
2022/01/05 05:30:52;;;;;;;6.93;1.43;;;22.40;99.90;;;;;;4996181;28;20218;-68
2022/01/05 05:33:20;;;;;;;8.17;1.23;;;22.50;99.90;;;;;;4996187;28;20188;-68
2022/01/05 05:35:48;;;;;;;5.37;1.30;;;22.50;99.90;;;;;;4996008;28;20233;-68
2022/01/05 05:38:16;;;;;;;5.83;1.20;;;22.60;99.90;;;;;;4978765;28;20196;-69
2022/01/05 05:40:47;;;;;;;4.87;1.30;;;22.70;99.90;;;;;;4995858;28;20581;-67
2022/01/05 05:43:14;;;;;;;7.83;1.20;;;22.80;99.90;;;;;;4996115;28;20662;-67
2022/01/05 05:45:42;;;;;;;4.33;0.93;;;22.80;99.90;;;;;;4996065;28;20268;-68
2022/01/05 05:48:10;;;;;;;4.73;1.30;;;22.90;99.90;;;;;;4995479;28;20710;-68
2022/01/05 05:50:38;;;;;;;4.63;1.13;;;23.10;99.90;;;;;;4995844;28;20328;-68
2022/01/05 05:53:05;;;;;;;1.87;0.80;;;23.20;99.90;;;;;;4995405;28;20188;-68
2022/01/05 05:55:34;;;;;;;4.60;0.90;;;23.80;99.90;;;;;;4995777;28;20244;-68
2022/01/05 05:58:02;;;;;;;2.73;0.73;;;24.40;99.90;;;;;;4995533;28;20713;-68
2022/01/05 06:00:30;;;;;;;3.50;1.20;;;24.80;99.90;;;;;;4978164;28;20208;-68
2022/01/05 06:02:59;;;;;;;4.37;0.80;;;24.80;99.90;;;;;;4978143;28;20614;-68
2022/01/05 06:05:27;;;;;;;5.90;1.20;;;24.70;99.90;;;;;;4995622;28;20932;-69
2022/01/05 06:07:55;;;;;;;4.17;1.00;;;24.70;99.90;;;;;;4995573;28;20182;-69
2022/01/05 06:10:22;;;;;;;5.03;0.80;;;24.50;99.90;;;;;;4995602;28;20620;-69
2022/01/05 06:12:50;;;;;;;5.57;1.30;;;24.60;99.90;;;;;;4995786;28;20646;-69
2022/01/05 06:15:17;;;;;;;5.73;1.03;;;24.70;99.90;;;;;;4978972;28;20278;-69
2022/01/05 06:17:45;;;;;;;5.40;1.23;;;24.70;99.90;;;;;;4994938;28;20190;-69
2022/01/05 06:20:12;;;;;;;6.43;1.30;;;24.80;99.90;;;;;;4995247;28;20274;-68
2022/01/05 06:22:41;;;;;;;4.20;1.20;;;25.00;99.90;;;;;;4994617;28;20182;-68
2022/01/05 06:25:13;;;;;;;3.80;1.13;;;24.90;99.90;;;;;;4995399;28;20234;-69
2022/01/05 06:27:40;;;;;;;3.73;1.03;;;24.90;99.90;;;;;;4995110;28;20190;-69
2022/01/05 06:30:09;;;;;;;5.20;1.13;;;24.80;99.90;;;;;;4994725;28;20225;-68
2022/01/05 06:32:46;;;;;;;2.50;1.17;;;24.70;99.90;;;;;;4994768;28;20197;-68
2022/01/05 06:35:16;;;;;;;9.47;1.23;;;24.50;99.90;;;;;;4994730;28;20265;-68
2022/01/05 06:37:43;;;;;;;10.97;1.50;;;24.40;99.90;;;;;;4994927;28;20186;-67
2022/01/05 06:40:11;;;;;;;5.03;1.43;;;24.40;99.90;;;;;;4977448;28;20190;-69
2022/01/05 06:42:39;;;;;;;3.23;1.13;;;24.30;99.90;;;;;;4977068;28;20593;-69
2022/01/05 06:45:06;;;;;;;4.17;1.40;;;24.40;99.90;;;;;;4994527;28;20186;-69
2022/01/05 06:47:34;;;;;;;3.23;1.27;;;24.50;99.90;;;;;;4994107;28;20186;-70
2022/01/05 06:50:01;;;;;;;4.43;1.37;;;24.60;99.90;;;;;;4994694;28;20663;-68
2022/01/05 06:52:28;;;;;;;4.40;1.47;;;24.60;99.90;;;;;;4993850;28;20194;-70
2022/01/05 06:54:56;;;;;;;4.03;1.50;;;24.60;99.90;;;;;;4993927;28;20191;-70
2022/01/05 06:57:23;;;;;;;3.07;1.20;;;24.60;99.90;;;;;;4994037;28;20206;-68
2022/01/05 06:59:51;;;;;;;7.77;1.77;;;24.40;99.90;;;;;;4994444;28;20189;-69
2022/01/05 07:02:18;;;;;;;5.43;1.33;;;24.40;99.90;;;;;;4993660;28;20198;-67
2022/01/05 07:04:45;;;;;;;12.00;2.50;;;24.30;99.90;;;;;;4994405;28;20197;-68
2022/01/05 07:07:13;;;;;;;5.67;1.50;;;24.10;99.90;;;;;;4994300;28;20269;-68
2022/01/05 07:09:40;;;;;;;8.70;2.00;;;24.00;99.90;;;;;;4994140;28;20222;-68
2022/01/05 07:12:08;;;;;;;7.90;1.90;;;23.90;99.90;;;;;;4994170;28;20178;-68
2022/01/05 07:14:35;;;;;;;7.20;2.20;;;23.90;99.90;;;;;;4994220;28;20182;-68
2022/01/05 07:17:03;;;;;;;6.30;1.93;;;23.80;99.90;;;;;;4991717;28;20328;-68
2022/01/05 07:19:30;;;;;;;10.60;2.30;;;23.90;99.90;;;;;;4976277;28;20969;-68
2022/01/05 07:21:57;;;;;;;8.37;2.43;;;24.00;99.90;;;;;;4976739;28;20194;-68
2022/01/05 07:24:25;;;;;;;9.10;2.17;;;24.00;99.90;;;;;;4993842;28;20179;-68
2022/01/05 07:26:52;;;;;;;9.97;2.40;;;24.10;99.90;;;;;;4994076;28;20194;-68
2022/01/05 07:29:20;;;;;;;11.27;3.27;;;24.10;99.90;;;;;;4992950;28;20574;-68
2022/01/05 07:31:48;;;;;;;11.47;2.23;;;24.10;99.90;;;;;;4993885;28;20193;-68
2022/01/05 07:34:16;;;;;;;13.40;2.30;;;24.10;99.90;;;;;;4976247;28;20650;-68
2022/01/05 07:36:43;;;;;;;9.33;2.17;;;24.20;99.90;;;;;;4994358;28;20238;-68
2022/01/05 07:39:12;;;;;;;9.50;2.80;;;24.20;99.90;;;;;;4993840;28;20182;-68
2022/01/05 07:41:40;;;;;;;9.73;2.50;;;24.20;99.90;;;;;;4994139;28;20636;-68
2022/01/05 07:44:07;;;;;;;11.00;2.90;;;24.20;99.90;;;;;;4993218;28;20201;-67
2022/01/05 07:46:35;;;;;;;12.17;2.90;;;24.20;99.90;;;;;;4976340;28;20186;-71
2022/01/05 07:49:05;;;;;;;15.87;2.83;;;24.40;99.90;;;;;;4993647;28;20212;-68
2022/01/05 07:51:33;;;;;;;11.07;2.80;;;24.50;99.90;;;;;;4993454;28;20218;-68
2022/01/05 07:54:01;;;;;;;10.40;2.50;;;24.60;99.90;;;;;;4960255;28;20648;-69
2022/01/05 07:56:29;;;;;;;16.07;2.80;;;24.70;99.90;;;;;;4976058;28;20198;-68
2022/01/05 07:58:56;;;;;;;10.63;2.50;;;24.80;99.90;;;;;;4993531;28;20182;-69
2022/01/05 08:01:24;;;;;;;11.67;2.60;;;24.90;99.90;;;;;;4976261;28;20185;-69
2022/01/05 08:03:52;;;;;;;17.93;3.03;;;24.90;99.90;;;;;;4976063;28;20183;-70
2022/01/05 08:06:20;;;;;;;20.53;3.33;;;24.80;99.90;;;;;;4993085;28;20250;-67
2022/01/05 08:08:48;;;;;;;11.70;3.10;;;24.90;99.90;;;;;;4975839;28;20273;-70
2022/01/05 08:11:16;;;;;;;17.47;4.00;;;24.90;99.90;;;;;;4993043;28;20793;-67
2022/01/05 08:13:44;;;;;;;20.73;3.60;;;24.80;99.90;;;;;;4993379;28;20201;-69
2022/01/05 08:16:11;;;;;;;26.83;4.20;;;24.80;99.90;;;;;;4992814;28;20186;-69
2022/01/05 08:18:39;;;;;;;19.13;3.57;;;24.90;99.90;;;;;;4992825;28;20200;-68
2022/01/05 08:21:07;;;;;;;16.90;3.63;;;24.90;99.90;;;;;;4993109;28;20170;-69
2022/01/05 08:23:35;;;;;;;22.83;4.30;;;24.90;99.90;;;;;;4992828;28;20213;-69
2022/01/05 08:26:04;;;;;;;25.20;5.30;;;24.90;99.90;;;;;;4993099;28;20179;-68
2022/01/05 08:28:32;;;;;;;18.50;3.53;;;24.90;99.90;;;;;;4992855;28;20558;-68
2022/01/05 08:31:00;;;;;;;22.50;4.00;;;25.00;99.90;;;;;;4993090;28;20214;-68
2022/01/05 08:33:28;;;;;;;22.17;4.07;;;24.90;99.90;;;;;;4992873;28;20182;-68
2022/01/05 08:35:55;;;;;;;19.00;3.50;;;24.80;99.90;;;;;;4975223;28;20237;-68
2022/01/05 08:38:22;;;;;;;20.87;4.57;;;24.70;99.90;;;;;;4992763;28;20186;-68
2022/01/05 08:40:50;;;;;;;19.33;3.93;;;24.50;99.90;;;;;;4974006;28;20194;-68
2022/01/05 08:43:18;;;;;;;18.90;3.73;;;24.40;99.90;;;;;;4992493;28;20175;-68
2022/01/05 08:45:46;;;;;;;23.40;4.43;;;24.10;99.90;;;;;;4993019;28;20285;-68
2022/01/05 08:48:13;;;;;;;19.50;3.57;;;23.90;99.90;;;;;;4983333;28;20175;-69
2022/01/05 08:50:41;;;;;;;26.90;5.03;;;23.70;99.90;;;;;;4975219;28;20229;-68
2022/01/05 08:53:09;;;;;;;22.87;4.47;;;23.60;99.90;;;;;;4993022;28;20577;-69
2022/01/05 08:55:39;;;;;;;28.47;5.40;;;23.40;99.90;;;;;;4974865;28;20217;-69
2022/01/05 08:58:08;;;;;;;25.30;5.37;;;23.40;99.90;;;;;;4992072;28;20186;-69
2022/01/05 09:00:36;;;;;;;25.83;4.87;;;23.30;99.90;;;;;;4992575;28;20212;-69
2022/01/05 09:03:05;;;;;;;28.67;6.17;;;23.30;99.90;;;;;;4991718;28;20196;-69
2022/01/05 09:05:34;;;;;;;32.53;5.57;;;23.30;99.90;;;;;;4992659;28;20706;-68
2022/01/05 09:08:02;;;;;;;37.83;6.60;;;23.30;99.90;;;;;;4975026;28;20187;-69
2022/01/05 09:10:30;;;;;;;29.73;5.90;;;23.40;99.90;;;;;;4992609;28;20253;-68
2022/01/05 09:12:58;;;;;;;23.03;4.50;;;23.40;99.90;;;;;;4992387;28;20178;-68
2022/01/05 09:15:26;;;;;;;34.90;5.40;;;23.40;99.90;;;;;;4975085;28;20288;-68
2022/01/05 09:17:54;;;;;;;39.43;6.07;;;23.50;99.90;;;;;;4991906;28;20178;-68
2022/01/05 09:20:22;;;;;;;40.87;6.47;;;23.40;99.90;;;;;;4992233;28;20567;-68
2022/01/05 09:22:49;;;;;;;35.33;6.07;;;23.40;99.90;;;;;;4992056;28;20182;-68
2022/01/05 09:25:18;;;;;;;36.17;7.27;;;23.40;99.90;;;;;;4992411;28;20596;-69
2022/01/05 09:27:47;;;;;;;34.87;5.87;;;23.40;99.90;;;;;;4974930;28;20193;-69
2022/01/05 09:30:16;;;;;;;34.67;5.87;;;23.40;99.90;;;;;;4992036;28;20218;-69
2022/01/05 09:32:44;;;;;;;34.30;5.90;;;23.40;99.90;;;;;;4992140;28;20252;-68
2022/01/05 09:35:17;;;;;;;42.27;5.73;;;23.40;99.90;;;;;;4991910;28;20194;-68
2022/01/05 09:43:16;;;;;;;35.23;6.63;;;23.40;99.90;;;;;;4992124;28;20605;-68
2022/01/05 09:46:06;;;;;;;41.10;6.87;;;23.40;99.90;;;;;;4992660;28;20189;-68
2022/01/05 09:48:51;;;;;;;41.10;5.80;;;23.40;99.90;;;;;;4975894;28;20562;-69
2022/01/05 09:51:23;;;;;;;40.70;6.80;;;23.40;99.90;;;;;;4995712;28;20220;-68
2022/01/05 09:53:51;;;;;;;37.33;6.10;;;23.40;99.90;;;;;;5000774;28;20183;-67
2022/01/05 09:56:19;;;;;;;24.47;5.37;;;23.30;99.90;;;;;;4997513;28;20177;-68
2022/01/05 09:58:47;;;;;;;40.67;6.40;;;23.30;99.90;;;;;;4996228;28;20193;-69
2022/01/05 10:01:14;;;;;;;46.37;6.33;;;23.30;99.90;;;;;;4978661;28;20232;-70
2022/01/05 10:03:42;;;;;;;31.30;6.07;;;23.20;99.90;;;;;;4995573;28;20189;-67
2022/01/05 10:06:12;;;;;;;28.67;5.60;;;23.20;99.90;;;;;;4995557;28;20204;-68
2022/01/05 10:08:39;;;;;;;35.00;6.17;;;23.20;99.90;;;;;;4995741;28;20276;-68
2022/01/05 10:11:10;;;;;;;33.77;5.80;;;23.10;99.90;;;;;;4978712;28;20666;-68
2022/01/05 10:13:38;;;;;;;34.57;6.37;;;23.10;99.90;;;;;;4996030;28;20205;-67
2022/01/05 10:16:05;;;;;;;30.63;6.23;;;23.10;99.90;;;;;;4996531;28;20636;-66
2022/01/05 10:18:41;;;;;;;40.23;6.60;;;23.10;99.90;;;;;;4996782;28;20185;-67
2022/01/05 10:21:11;;;;;;;40.93;6.73;;;23.10;99.90;;;;;;4996608;28;20185;-67
2022/01/05 10:23:51;;;;;;;35.60;6.27;;;23.00;99.90;;;;;;4996429;28;20186;-68
2022/01/05 10:26:36;;;;;;;29.00;4.67;;;23.00;99.90;;;;;;4996482;28;20197;-67
2022/01/05 10:29:08;;;;;;;39.77;6.90;;;23.00;99.90;;;;;;4996466;28;20672;-67
2022/01/05 10:31:38;;;;;;;40.63;5.93;;;23.00;99.90;;;;;;4996506;28;20246;-67
2022/01/05 10:34:24;;;;;;;41.97;6.27;;;23.00;99.90;;;;;;4995975;28;20571;-67
2022/01/05 10:36:54;;;;;;;30.07;5.93;;;23.00;99.90;;;;;;4995866;28;20308;-66
2022/01/05 10:39:38;;;;;;;31.53;5.13;;;23.00;99.90;;;;;;4995472;28;20658;-67
2022/01/05 10:42:07;;;;;;;35.67;6.83;;;23.10;99.90;;;;;;4995227;28;20230;-66
2022/01/05 10:44:36;;;;;;;35.43;6.67;;;23.10;99.90;;;;;;4995380;28;20182;-67
2022/01/05 10:47:07;;;;;;;40.53;8.33;;;23.10;99.90;;;;;;4992594;28;20186;-66
2022/01/05 10:49:38;;;;;;;44.70;6.97;;;23.10;99.90;;;;;;4995159;28;20173;-66
2022/01/05 10:52:31;;;;;;;33.97;5.80;;;23.10;99.90;;;;;;4980343;28;20269;-67
2022/01/05 10:55:18;;;;;;;33.77;5.90;;;23.00;99.90;;;;;;4997105;28;20206;-67
2022/01/05 10:58:02;;;;;;;31.73;6.50;;;23.00;99.90;;;;;;4995018;28;20174;-67
2022/01/05 11:00:44;;;;;;;23.40;4.53;;;22.90;99.90;;;;;;4992357;28;20279;-66
2022/01/05 11:03:32;;;;;;;31.90;5.77;;;22.90;99.90;;;;;;4992363;28;20243;-65
2022/01/05 11:06:15;;;;;;;27.83;5.60;;;22.90;99.90;;;;;;5001482;28;20190;-66
2022/01/05 11:09:00;;;;;;;33.13;6.03;;;22.90;99.90;;;;;;4999946;28;20178;-67
2022/01/05 11:11:43;;;;;;;37.53;5.67;;;22.90;99.90;;;;;;4994972;28;20575;-67
2022/01/05 11:14:18;;;;;;;37.70;5.60;;;22.90;99.90;;;;;;4995288;28;20178;-67
2022/01/05 11:16:51;;;;;;;31.57;5.63;;;22.90;99.90;;;;;;4995474;28;20174;-68
2022/01/05 11:19:30;;;;;;;28.50;5.37;;;22.90;99.90;;;;;;4995585;28;20631;-67
2022/01/05 11:22:15;;;;;;;27.13;5.17;;;22.80;99.90;;;;;;4995669;28;20205;-70
2022/01/05 11:24:53;;;;;;;33.57;5.53;;;22.80;99.90;;;;;;4998752;28;20192;-68
2022/01/05 11:27:24;;;;;;;37.73;6.23;;;22.80;99.90;;;;;;4993118;28;20250;-68
2022/01/05 11:29:52;;;;;;;26.60;4.47;;;22.80;99.90;;;;;;4994696;28;20713;-68
2022/01/05 11:32:23;;;;;;;40.27;6.17;;;22.80;99.90;;;;;;4994760;28;20218;-68
2022/01/05 11:34:52;;;;;;;32.13;5.43;;;22.80;99.90;;;;;;4994400;28;20722;-68
2022/01/05 11:37:20;;;;;;;33.73;6.57;;;22.80;99.90;;;;;;4994949;28;20226;-68
2022/01/05 11:39:53;;;;;;;28.07;5.37;;;22.80;99.90;;;;;;4995144;28;20194;-68
2022/01/05 11:42:35;;;;;;;34.57;6.33;;;22.80;99.90;;;;;;4994833;28;20183;-67
2022/01/05 11:45:04;;;;;;;30.07;5.57;;;22.80;99.90;;;;;;4994706;28;20699;-68
2022/01/05 11:47:35;;;;;;;31.13;6.77;;;22.80;99.90;;;;;;4994798;28;20182;-69
2022/01/05 11:50:15;;;;;;;30.87;5.70;;;22.80;99.90;;;;;;4994966;28;20221;-67
2022/01/05 11:53:09;;;;;;;32.60;6.53;;;22.80;99.90;;;;;;4994916;28;20185;-67
2022/01/05 11:56:01;;;;;;;35.80;5.50;;;22.80;99.90;;;;;;4975205;28;20196;-68
2022/01/05 11:58:31;;;;;;;37.87;6.10;;;22.80;99.90;;;;;;4957995;28;20182;-68
2022/01/05 12:01:14;;;;;;;28.93;6.33;;;22.80;99.90;;;;;;4980980;28;20183;-68
2022/01/05 12:03:57;;;;;;;27.40;4.47;;;22.80;99.90;;;;;;4994810;28;20179;-67
2022/01/05 12:07:04;;;;;;;28.23;5.43;;;22.80;99.90;;;;;;4994638;28;20189;-67
2022/01/05 12:09:33;;;;;;;31.77;5.70;;;22.90;99.90;;;;;;4994280;28;20620;-69
2022/01/05 12:12:24;;;;;;;35.63;6.23;;;22.90;99.90;;;;;;4977104;28;20650;-68
2022/01/05 12:14:51;;;;;;;33.07;5.40;;;22.90;99.90;;;;;;4976512;28;20193;-68
2022/01/05 12:17:20;;;;;;;39.57;6.50;;;22.90;99.90;;;;;;4994200;28;20280;-68
2022/01/05 12:19:48;;;;;;;37.37;6.67;;;22.90;99.90;;;;;;4994187;28;20589;-68
2022/01/05 12:22:24;;;;;;;34.77;6.30;;;22.80;99.90;;;;;;4993807;28;20190;-68
2022/01/05 12:25:00;;;;;;;25.77;5.17;;;22.80;99.90;;;;;;4994226;28;20183;-68
2022/01/05 12:27:32;;;;;;;32.63;6.13;;;22.80;99.90;;;;;;4994050;28;20185;-68
2022/01/05 12:30:04;;;;;;;35.13;6.03;;;22.80;99.90;;;;;;4994115;28;20557;-67
2022/01/05 12:32:43;;;;;;;34.50;6.23;;;22.80;99.90;;;;;;4976750;28;20194;-67
2022/01/05 12:35:19;;;;;;;27.70;5.80;;;22.80;99.90;;;;;;4993799;28;20192;-67
2022/01/05 12:37:56;;;;;;;37.90;6.80;;;22.80;99.90;;;;;;4993904;28;20194;-67
2022/01/05 12:40:35;;;;;;;31.13;6.67;;;22.80;99.90;;;;;;4993566;28;20240;-67
2022/01/05 12:43:16;;;;;;;39.90;6.27;;;22.80;99.90;;;;;;4994050;28;20174;-67
2022/01/05 12:45:58;;;;;;;24.70;4.97;;;22.70;99.90;;;;;;4993932;28;20213;-67
2022/01/05 12:48:32;;;;;;;32.43;5.93;;;22.70;99.90;;;;;;4993635;28;20549;-68
2022/01/05 12:51:20;;;;;;;23.83;4.23;;;22.60;99.90;;;;;;4993197;28;20299;-69
2022/01/05 12:54:00;;;;;;;22.30;4.47;;;22.50;99.90;;;;;;4993655;28;20179;-68
2022/01/05 12:56:34;;;;;;;23.53;4.07;;;22.50;99.90;;;;;;4993810;28;20182;-68
2022/01/05 12:59:05;;;;;;;22.67;4.10;;;22.40;99.90;;;;;;4993767;28;20189;-68
2022/01/05 13:01:33;;;;;;;24.17;3.50;;;22.40;99.90;;;;;;4993567;28;20599;-68
2022/01/05 13:04:08;;;;;;;31.47;4.40;;;22.40;99.90;;;;;;4993945;28;20182;-68